sensor_id;sensor_type;location;lat;lon;timestamp;pressure;altitude;pressure_sealevel;temperature;humidity
79752;BME280;69234;47.446;21.636;2023-06-14T00:00:07;100363.47;;;10.98;91.01
79752;BME280;69234;47.446;21.636;2023-06-14T00:00:38;100361.88;;;10.95;90.96
79752;BME280;69234;47.446;21.636;2023-06-14T00:01:11;100359.31;;;10.94;91.03
79752;BME280;69234;47.446;21.636;2023-06-14T00:01:44;100344.72;;;10.87;90.10
79752;BME280;69234;47.446;21.636;2023-06-14T00:02:16;100353.25;;;10.92;90.97
79752;BME280;69234;47.446;21.636;2023-06-14T00:02:47;100357.88;;;10.90;90.27
79752;BME280;69234;47.446;21.636;2023-06-14T00:03:19;100357.63;;;10.93;90.36
79752;BME280;69234;47.446;21.636;2023-06-14T00:03:53;100364.00;;;10.92;90.08
79752;BME280;69234;47.446;21.636;2023-06-14T00:04:26;100353.50;;;10.89;89.83
79752;BME280;69234;47.446;21.636;2023-06-14T00:04:57;100361.31;;;10.92;90.37
79752;BME280;69234;47.446;21.636;2023-06-14T00:05:29;100359.56;;;10.91;90.95
79752;BME280;69234;47.446;21.636;2023-06-14T00:06:01;100358.88;;;10.89;90.60
79752;BME280;69234;47.446;21.636;2023-06-14T00:06:32;100356.88;;;10.91;90.68
79752;BME280;69234;47.446;21.636;2023-06-14T00:07:05;100355.19;;;10.90;91.48
79752;BME280;69234;47.446;21.636;2023-06-14T00:07:41;100362.25;;;10.91;91.55
79752;BME280;69234;47.446;21.636;2023-06-14T00:08:18;100355.47;;;10.87;90.97
79752;BME280;69234;47.446;21.636;2023-06-14T00:08:51;100358.88;;;10.89;90.81
79752;BME280;69234;47.446;21.636;2023-06-14T00:09:22;100363.41;;;10.88;91.20
79752;BME280;69234;47.446;21.636;2023-06-14T00:09:53;100357.44;;;10.85;91.78
79752;BME280;69234;47.446;21.636;2023-06-14T00:10:24;100363.53;;;10.87;91.66
79752;BME280;69234;47.446;21.636;2023-06-14T00:10:57;100364.38;;;10.87;91.57
79752;BME280;69234;47.446;21.636;2023-06-14T00:11:28;100358.16;;;10.87;90.34
79752;BME280;69234;47.446;21.636;2023-06-14T00:12:00;100360.84;;;10.87;90.18
79752;BME280;69234;47.446;21.636;2023-06-14T00:12:31;100347.34;;;10.77;90.65
79752;BME280;69234;47.446;21.636;2023-06-14T00:13:03;100362.81;;;10.85;89.85
79752;BME280;69234;47.446;21.636;2023-06-14T00:13:34;100353.03;;;10.84;89.70
79752;BME280;69234;47.446;21.636;2023-06-14T00:14:05;100349.06;;;10.78;90.04
79752;BME280;69234;47.446;21.636;2023-06-14T00:14:36;100357.81;;;10.80;90.28
79752;BME280;69234;47.446;21.636;2023-06-14T00:15:08;100355.28;;;10.79;89.59
79752;BME280;69234;47.446;21.636;2023-06-14T00:15:40;100346.75;;;10.74;90.25
79752;BME280;69234;47.446;21.636;2023-06-14T00:16:11;100363.34;;;10.79;90.39
79752;BME280;69234;47.446;21.636;2023-06-14T00:16:42;100358.81;;;10.79;90.48
79752;BME280;69234;47.446;21.636;2023-06-14T00:17:13;100346.75;;;10.74;90.39
79752;BME280;69234;47.446;21.636;2023-06-14T00:17:47;100354.28;;;10.80;90.64
79752;BME280;69234;47.446;21.636;2023-06-14T00:18:18;100358.97;;;10.78;90.51
79752;BME280;69234;47.446;21.636;2023-06-14T00:18:49;100337.00;;;10.73;90.23
79752;BME280;69234;47.446;21.636;2023-06-14T00:19:22;100353.59;;;10.78;90.44
79752;BME280;69234;47.446;21.636;2023-06-14T00:19:53;100352.34;;;10.82;90.82
79752;BME280;69234;47.446;21.636;2023-06-14T00:20:24;100349.06;;;10.78;91.19
79752;BME280;69234;47.446;21.636;2023-06-14T00:20:56;100351.50;;;10.81;91.87
79752;BME280;69234;47.446;21.636;2023-06-14T00:21:27;100351.75;;;10.78;91.59
79752;BME280;69234;47.446;21.636;2023-06-14T00:22:00;100350.75;;;10.79;91.28
79752;BME280;69234;47.446;21.636;2023-06-14T00:22:31;100357.97;;;10.79;91.28
79752;BME280;69234;47.446;21.636;2023-06-14T00:23:03;100350.91;;;10.78;91.45
79752;BME280;69234;47.446;21.636;2023-06-14T00:23:34;100337.25;;;10.69;92.12
79752;BME280;69234;47.446;21.636;2023-06-14T00:24:05;100347.34;;;10.77;91.27
79752;BME280;69234;47.446;21.636;2023-06-14T00:24:36;100356.13;;;10.79;91.05
79752;BME280;69234;47.446;21.636;2023-06-14T00:25:07;100347.34;;;10.77;91.96
79752;BME280;69234;47.446;21.636;2023-06-14T00:25:38;100349.19;;;10.77;91.58
79752;BME280;69234;47.446;21.636;2023-06-14T00:26:09;100352.84;;;10.76;90.76
79752;BME280;69234;47.446;21.636;2023-06-14T00:26:43;100353.00;;;10.74;90.72
79752;BME280;69234;47.446;21.636;2023-06-14T00:27:14;100350.31;;;10.74;91.40
79752;BME280;69234;47.446;21.636;2023-06-14T00:27:45;100350.31;;;10.74;92.01
79752;BME280;69234;47.446;21.636;2023-06-14T00:28:16;100353.97;;;10.73;91.25
79752;BME280;69234;47.446;21.636;2023-06-14T00:28:48;100356.81;;;10.71;91.80
79752;BME280;69234;47.446;21.636;2023-06-14T00:29:19;100358.22;;;10.76;92.04
79752;BME280;69234;47.446;21.636;2023-06-14T00:29:50;100341.69;;;10.70;92.00
79752;BME280;69234;47.446;21.636;2023-06-14T00:30:21;100349.44;;;10.74;91.33
79752;BME280;69234;47.446;21.636;2023-06-14T00:30:52;100348.75;;;10.71;91.09
79752;BME280;69234;47.446;21.636;2023-06-14T00:31:23;100342.63;;;10.69;91.48
79752;BME280;69234;47.446;21.636;2023-06-14T00:31:54;100346.06;;;10.71;91.10
79752;BME280;69234;47.446;21.636;2023-06-14T00:32:25;100354.38;;;10.68;91.41
79752;BME280;69234;47.446;21.636;2023-06-14T00:32:56;100348.28;;;10.66;90.65
79752;BME280;69234;47.446;21.636;2023-06-14T00:33:30;100354.63;;;10.65;90.89
79752;BME280;69234;47.446;21.636;2023-06-14T00:34:01;100347.56;;;10.64;90.83
79752;BME280;69234;47.446;21.636;2023-06-14T00:34:32;100352.94;;;10.64;90.85
79752;BME280;69234;47.446;21.636;2023-06-14T00:35:03;100354.91;;;10.62;91.55
79752;BME280;69234;47.446;21.636;2023-06-14T00:35:34;100355.03;;;10.61;91.21
79752;BME280;69234;47.446;21.636;2023-06-14T00:36:05;100345.53;;;10.57;91.48
79752;BME280;69234;47.446;21.636;2023-06-14T00:36:36;100347.09;;;10.59;90.63
79752;BME280;69234;47.446;21.636;2023-06-14T00:37:07;100350.78;;;10.58;91.12
79752;BME280;69234;47.446;21.636;2023-06-14T00:37:38;100356.41;;;10.55;91.71
79752;BME280;69234;47.446;21.636;2023-06-14T00:38:09;100355.31;;;10.58;90.76
79752;BME280;69234;47.446;21.636;2023-06-14T00:38:40;100357.13;;;10.57;91.51
79752;BME280;69234;47.446;21.636;2023-06-14T00:39:13;100355.41;;;10.56;91.41
79752;BME280;69234;47.446;21.636;2023-06-14T00:39:44;100347.50;;;10.55;90.74
79752;BME280;69234;47.446;21.636;2023-06-14T00:40:15;100339.13;;;10.48;91.26
79752;BME280;69234;47.446;21.636;2023-06-14T00:40:46;100339.97;;;10.48;91.01
79752;BME280;69234;47.446;21.636;2023-06-14T00:41:18;100351.03;;;10.55;91.43
79752;BME280;69234;47.446;21.636;2023-06-14T00:41:48;100347.66;;;10.53;91.50
79752;BME280;69234;47.446;21.636;2023-06-14T00:42:29;100354.72;;;10.54;90.82
79752;BME280;69234;47.446;21.636;2023-06-14T00:43:00;100345.34;;;10.48;90.61
79752;BME280;69234;47.446;21.636;2023-06-14T00:43:31;100338.13;;;10.49;90.87
79752;BME280;69234;47.446;21.636;2023-06-14T00:44:02;100345.91;;;10.52;90.78
79752;BME280;69234;47.446;21.636;2023-06-14T00:44:33;100344.50;;;10.48;90.86
79752;BME280;69234;47.446;21.636;2023-06-14T00:45:07;100341.09;;;10.46;91.68
79752;BME280;69234;47.446;21.636;2023-06-14T00:45:38;100347.75;;;10.52;90.84
79752;BME280;69234;47.446;21.636;2023-06-14T00:46:09;100351.28;;;10.52;91.54
79752;BME280;69234;47.446;21.636;2023-06-14T00:46:41;100344.38;;;10.50;90.51
79752;BME280;69234;47.446;21.636;2023-06-14T00:47:12;100346.91;;;10.51;91.42
79752;BME280;69234;47.446;21.636;2023-06-14T00:47:43;100334.25;;;10.42;90.76
79752;BME280;69234;47.446;21.636;2023-06-14T00:48:16;100352.28;;;10.51;91.11
79752;BME280;69234;47.446;21.636;2023-06-14T00:48:49;100347.06;;;10.50;90.67
79752;BME280;69234;47.446;21.636;2023-06-14T00:49:21;100356.91;;;10.49;91.36
79752;BME280;69234;47.446;21.636;2023-06-14T00:49:54;100351.56;;;10.49;90.66
79752;BME280;69234;47.446;21.636;2023-06-14T00:50:26;100348.28;;;10.45;90.51
79752;BME280;69234;47.446;21.636;2023-06-14T00:50:57;100342.56;;;10.39;90.32
79752;BME280;69234;47.446;21.636;2023-06-14T00:51:28;100349.28;;;10.44;91.08
79752;BME280;69234;47.446;21.636;2023-06-14T00:51:59;100346.72;;;10.43;91.17
79752;BME280;69234;47.446;21.636;2023-06-14T00:52:30;100343.44;;;10.39;90.45
79752;BME280;69234;47.446;21.636;2023-06-14T00:53:03;100350.97;;;10.45;91.54
79752;BME280;69234;47.446;21.636;2023-06-14T00:53:34;100352.69;;;10.46;90.82
79752;BME280;69234;47.446;21.636;2023-06-14T00:54:06;100349.28;;;10.44;91.10
79752;BME280;69234;47.446;21.636;2023-06-14T00:54:37;100341.72;;;10.38;91.53
79752;BME280;69234;47.446;21.636;2023-06-14T00:55:09;100340.88;;;10.38;91.25
79752;BME280;69234;47.446;21.636;2023-06-14T00:55:40;100359.59;;;10.49;91.63
79752;BME280;69234;47.446;21.636;2023-06-14T00:56:10;100357.91;;;10.48;91.14
79752;BME280;69234;47.446;21.636;2023-06-14T00:56:44;100360.59;;;10.48;92.23
79752;BME280;69234;47.446;21.636;2023-06-14T00:57:16;100357.22;;;10.46;91.46
79752;BME280;69234;47.446;21.636;2023-06-14T00:57:48;100360.84;;;10.45;92.36
79752;BME280;69234;47.446;21.636;2023-06-14T00:58:22;100341.03;;;10.36;92.40
79752;BME280;69234;47.446;21.636;2023-06-14T00:58:53;100361.13;;;10.42;92.28
79752;BME280;69234;47.446;21.636;2023-06-14T00:59:25;100359.00;;;10.45;92.22
79752;BME280;69234;47.446;21.636;2023-06-14T00:59:56;100360.84;;;10.45;92.04
79752;BME280;69234;47.446;21.636;2023-06-14T01:00:27;100351.50;;;10.39;91.05
79752;BME280;69234;47.446;21.636;2023-06-14T01:00:59;100348.69;;;10.41;91.26
79752;BME280;69234;47.446;21.636;2023-06-14T01:01:31;100351.50;;;10.39;91.29
79752;BME280;69234;47.446;21.636;2023-06-14T01:02:05;100360.00;;;10.44;91.17
79752;BME280;69234;47.446;21.636;2023-06-14T01:02:39;100362.59;;;10.46;91.98
79752;BME280;69234;47.446;21.636;2023-06-14T01:03:09;100351.22;;;10.42;91.58
79752;BME280;69234;47.446;21.636;2023-06-14T01:03:43;100354.06;;;10.41;90.91
79752;BME280;69234;47.446;21.636;2023-06-14T01:04:14;100359.28;;;10.42;91.37
79752;BME280;69234;47.446;21.636;2023-06-14T01:04:49;100358.31;;;10.43;91.90
79752;BME280;69234;47.446;21.636;2023-06-14T01:05:23;100357.47;;;10.43;90.95
79752;BME280;69234;47.446;21.636;2023-06-14T01:07:10;100362.84;;;10.43;91.53
79752;BME280;69234;47.446;21.636;2023-06-14T01:08:28;100356.59;;;10.42;91.85
79752;BME280;69234;47.446;21.636;2023-06-14T01:11:18;100361.25;;;10.40;91.71
79752;BME280;69234;47.446;21.636;2023-06-14T01:12:04;100357.84;;;10.38;90.81
79752;BME280;69234;47.446;21.636;2023-06-14T01:13:43;100343.81;;;10.35;91.03
79752;BME280;69234;47.446;21.636;2023-06-14T01:14:17;100349.19;;;10.35;90.86
79752;BME280;69234;47.446;21.636;2023-06-14T01:14:51;100353.59;;;10.36;91.26
79752;BME280;69234;47.446;21.636;2023-06-14T01:15:25;100354.56;;;10.35;90.95
79752;BME280;69234;47.446;21.636;2023-06-14T01:15:56;100352.03;;;10.33;91.83
79752;BME280;69234;47.446;21.636;2023-06-14T01:16:29;100356.41;;;10.34;91.58
79752;BME280;69234;47.446;21.636;2023-06-14T01:17:02;100353.72;;;10.34;90.83
79752;BME280;69234;47.446;21.636;2023-06-14T01:17:34;100353.72;;;10.34;90.91
79752;BME280;69234;47.446;21.636;2023-06-14T01:18:06;100343.38;;;10.30;91.60
79752;BME280;69234;47.446;21.636;2023-06-14T01:18:39;100346.06;;;10.30;91.50
79752;BME280;69234;47.446;21.636;2023-06-14T01:19:14;100358.25;;;10.34;91.59
79752;BME280;69234;47.446;21.636;2023-06-14T01:19:46;100354.81;;;10.32;91.26
79752;BME280;69234;47.446;21.636;2023-06-14T01:20:21;100364.13;;;10.28;91.32
79752;BME280;69234;47.446;21.636;2023-06-14T01:20:52;100356.22;;;10.26;91.11
79752;BME280;69234;47.446;21.636;2023-06-14T01:21:26;100360.94;;;10.22;91.80
79752;BME280;69234;47.446;21.636;2023-06-14T01:22:01;100354.16;;;10.18;90.98
79752;BME280;69234;47.446;21.636;2023-06-14T01:22:33;100358.38;;;10.21;91.17
79752;BME280;69234;47.446;21.636;2023-06-14T01:23:04;100352.91;;;10.22;91.65
79752;BME280;69234;47.446;21.636;2023-06-14T01:23:35;100358.03;;;10.26;91.67
79752;BME280;69234;47.446;21.636;2023-06-14T01:24:06;100359.59;;;10.28;91.92
79752;BME280;69234;47.446;21.636;2023-06-14T01:24:37;100361.31;;;10.29;92.59
79752;BME280;69234;47.446;21.636;2023-06-14T01:25:10;100356.66;;;10.31;92.70
79752;BME280;69234;47.446;21.636;2023-06-14T01:25:43;100361.06;;;10.32;92.44
79752;BME280;69234;47.446;21.636;2023-06-14T01:26:16;100347.38;;;10.24;92.82
79752;BME280;69234;47.446;21.636;2023-06-14T01:26:48;100353.97;;;10.31;91.91
79752;BME280;69234;47.446;21.636;2023-06-14T01:27:24;100361.06;;;10.32;91.80
79752;BME280;69234;47.446;21.636;2023-06-14T01:28:03;100349.84;;;10.27;92.65
79752;BME280;69234;47.446;21.636;2023-06-14T01:28:35;100356.53;;;10.33;92.77
79752;BME280;69234;47.446;21.636;2023-06-14T01:29:07;100350.31;;;10.21;93.17
79752;BME280;69234;47.446;21.636;2023-06-14T01:29:39;100350.31;;;10.21;92.32
79752;BME280;69234;47.446;21.636;2023-06-14T01:30:21;100356.81;;;10.30;93.01
79752;BME280;69234;47.446;21.636;2023-06-14T01:30:54;100350.59;;;10.29;93.19
79752;BME280;69234;47.446;21.636;2023-06-14T01:31:26;100363.22;;;10.38;93.13
79752;BME280;69234;47.446;21.636;2023-06-14T01:32:01;100368.47;;;10.40;91.98
79752;BME280;69234;47.446;21.636;2023-06-14T01:32:35;100343.50;;;10.28;92.00
79752;BME280;69234;47.446;21.636;2023-06-14T01:33:07;100354.31;;;10.38;92.55
79752;BME280;69234;47.446;21.636;2023-06-14T01:33:38;100356.28;;;10.36;92.68
79752;BME280;69234;47.446;21.636;2023-06-14T01:34:09;100358.56;;;10.40;92.32
79752;BME280;69234;47.446;21.636;2023-06-14T01:34:41;100356.28;;;10.36;93.04
79752;BME280;69234;47.446;21.636;2023-06-14T01:35:12;100365.91;;;10.38;91.85
79752;BME280;69234;47.446;21.636;2023-06-14T01:35:47;100359.69;;;10.38;91.57
79752;BME280;69234;47.446;21.636;2023-06-14T01:36:20;100364.19;;;10.37;91.77
79752;BME280;69234;47.446;21.636;2023-06-14T01:36:52;100359.94;;;10.35;92.05
79752;BME280;69234;47.446;21.636;2023-06-14T01:37:25;100346.41;;;10.25;91.88
79752;BME280;69234;47.446;21.636;2023-06-14T01:37:58;100367.03;;;10.36;91.38
79752;BME280;69234;47.446;21.636;2023-06-14T01:38:30;100347.16;;;10.27;91.38
79752;BME280;69234;47.446;21.636;2023-06-14T01:39:04;100367.03;;;10.36;90.69
79752;BME280;69234;47.446;21.636;2023-06-14T01:39:36;100359.94;;;10.35;90.79
79752;BME280;69234;47.446;21.636;2023-06-14T01:40:10;100358.25;;;10.34;91.18
79752;BME280;69234;47.446;21.636;2023-06-14T01:40:44;100365.44;;;10.33;91.87
79752;BME280;69234;47.446;21.636;2023-06-14T01:41:17;100358.75;;;10.28;91.72
79752;BME280;69234;47.446;21.636;2023-06-14T01:41:50;100360.72;;;10.26;91.69
79752;BME280;69234;47.446;21.636;2023-06-14T01:42:23;100366.09;;;10.26;91.21
79752;BME280;69234;47.446;21.636;2023-06-14T01:42:55;100363.63;;;10.22;92.33
79752;BME280;69234;47.446;21.636;2023-06-14T01:43:27;100364.25;;;10.26;91.44
79752;BME280;69234;47.446;21.636;2023-06-14T01:44:01;100373.25;;;10.25;92.14
79752;BME280;69234;47.446;21.636;2023-06-14T01:44:33;100371.69;;;10.22;91.73
79752;BME280;69234;47.446;21.636;2023-06-14T01:45:07;100365.13;;;10.15;92.40
79752;BME280;69234;47.446;21.636;2023-06-14T01:45:41;100368.66;;;10.16;92.66
79752;BME280;69234;47.446;21.636;2023-06-14T01:46:13;100372.44;;;10.13;92.60
79752;BME280;69234;47.446;21.636;2023-06-14T01:46:46;100365.16;;;10.04;92.17
79752;BME280;69234;47.446;21.636;2023-06-14T01:47:17;100366.03;;;10.05;93.26
79752;BME280;69234;47.446;21.636;2023-06-14T01:47:48;100372.00;;;10.08;92.55
79752;BME280;69234;47.446;21.636;2023-06-14T01:48:21;100370.16;;;10.09;92.30
79752;BME280;69234;47.446;21.636;2023-06-14T01:48:52;100367.06;;;10.13;93.04
79752;BME280;69234;47.446;21.636;2023-06-14T01:49:25;100376.13;;;10.12;92.27
79752;BME280;69234;47.446;21.636;2023-06-14T01:49:58;100373.44;;;10.12;92.61
79752;BME280;69234;47.446;21.636;2023-06-14T01:50:30;100379.41;;;10.16;92.22
79752;BME280;69234;47.446;21.636;2023-06-14T01:51:02;100378.31;;;10.18;93.18
79752;BME280;69234;47.446;21.636;2023-06-14T01:51:33;100380.97;;;10.18;92.50
79752;BME280;69234;47.446;21.636;2023-06-14T01:52:04;100377.16;;;10.21;92.17
79752;BME280;69234;47.446;21.636;2023-06-14T01:52:39;100371.09;;;10.19;93.20
79752;BME280;69234;47.446;21.636;2023-06-14T01:53:10;100371.09;;;10.19;91.89
79752;BME280;69234;47.446;21.636;2023-06-14T01:53:41;100371.94;;;10.19;92.32
79752;BME280;69234;47.446;21.636;2023-06-14T01:54:14;100372.06;;;10.18;92.46
79752;BME280;69234;47.446;21.636;2023-06-14T01:54:45;100375.34;;;10.21;91.94
79752;BME280;69234;47.446;21.636;2023-06-14T01:55:18;100376.22;;;10.22;91.79
79752;BME280;69234;47.446;21.636;2023-06-14T01:55:49;100375.63;;;10.18;92.53
79752;BME280;69234;47.446;21.636;2023-06-14T01:56:20;100378.00;;;10.21;91.45
79752;BME280;69234;47.446;21.636;2023-06-14T01:56:53;100375.22;;;10.23;91.67
79752;BME280;69234;47.446;21.636;2023-06-14T01:57:25;100381.59;;;10.22;91.90
79752;BME280;69234;47.446;21.636;2023-06-14T01:57:57;100372.19;;;10.16;92.28
79752;BME280;69234;47.446;21.636;2023-06-14T01:58:29;100377.41;;;10.18;92.37
79752;BME280;69234;47.446;21.636;2023-06-14T01:59:02;100383.38;;;10.21;92.56
79752;BME280;69234;47.446;21.636;2023-06-14T01:59:32;100384.38;;;10.20;91.44
79752;BME280;69234;47.446;21.636;2023-06-14T02:00:06;100381.44;;;10.23;92.31
79752;BME280;69234;47.446;21.636;2023-06-14T02:00:43;100381.59;;;10.22;92.03
79752;BME280;69234;47.446;21.636;2023-06-14T02:01:14;100380.69;;;10.21;91.59
79752;BME280;69234;47.446;21.636;2023-06-14T02:01:47;100374.16;;;10.14;91.77
79752;BME280;69234;47.446;21.636;2023-06-14T02:02:18;100390.59;;;10.21;91.55
79752;BME280;69234;47.446;21.636;2023-06-14T02:02:48;100374.16;;;10.14;91.33
79752;BME280;69234;47.446;21.636;2023-06-14T02:03:21;100381.25;;;10.15;91.73
79752;BME280;69234;47.446;21.636;2023-06-14T02:03:52;100384.88;;;10.14;91.21
79752;BME280;69234;47.446;21.636;2023-06-14T02:04:24;100384.16;;;10.12;91.44
79752;BME280;69234;47.446;21.636;2023-06-14T02:04:55;100383.44;;;10.10;91.29
79752;BME280;69234;47.446;21.636;2023-06-14T02:05:28;100375.78;;;10.06;91.57
79752;BME280;69234;47.446;21.636;2023-06-14T02:05:59;100380.03;;;10.08;91.34
79752;BME280;69234;47.446;21.636;2023-06-14T02:06:30;100388.94;;;10.09;91.23
79752;BME280;69234;47.446;21.636;2023-06-14T02:07:00;100384.69;;;10.06;91.36
79752;BME280;69234;47.446;21.636;2023-06-14T02:07:31;100382.13;;;10.05;92.09
79752;BME280;69234;47.446;21.636;2023-06-14T02:08:03;100380.66;;;10.00;92.11
79752;BME280;69234;47.446;21.636;2023-06-14T02:08:34;100387.75;;;10.02;92.28
79752;BME280;69234;47.446;21.636;2023-06-14T02:09:05;100385.91;;;10.02;91.41
79752;BME280;69234;47.446;21.636;2023-06-14T02:09:36;100393.22;;;10.00;91.38
79752;BME280;69234;47.446;21.636;2023-06-14T02:10:07;100385.19;;;10.00;92.33
79752;BME280;69234;47.446;21.636;2023-06-14T02:10:38;100381.06;;;9.96;92.27
79752;BME280;69234;47.446;21.636;2023-06-14T02:11:09;100388.13;;;9.97;91.76
79752;BME280;69234;47.446;21.636;2023-06-14T02:11:40;100382.28;;;9.92;92.12
79752;BME280;69234;47.446;21.636;2023-06-14T02:12:11;100388.34;;;9.94;91.50
79752;BME280;69234;47.446;21.636;2023-06-14T02:12:42;100389.25;;;9.94;92.16
79752;BME280;69234;47.446;21.636;2023-06-14T02:13:13;100390.34;;;9.92;91.58
79752;BME280;69234;47.446;21.636;2023-06-14T02:13:44;100389.34;;;9.93;91.23
79752;BME280;69234;47.446;21.636;2023-06-14T02:14:16;100393.03;;;9.92;92.05
79752;BME280;69234;47.446;21.636;2023-06-14T02:14:47;100390.59;;;9.89;92.12
79752;BME280;69234;47.446;21.636;2023-06-14T02:15:19;100388.63;;;9.91;91.60
79752;BME280;69234;47.446;21.636;2023-06-14T02:15:50;100393.13;;;9.90;91.73
79752;BME280;69234;47.446;21.636;2023-06-14T02:16:25;100393.50;;;9.86;91.33
79752;BME280;69234;47.446;21.636;2023-06-14T02:16:58;100397.28;;;9.83;91.58
79752;BME280;69234;47.446;21.636;2023-06-14T02:17:31;100385.84;;;9.81;91.98
79752;BME280;69234;47.446;21.636;2023-06-14T02:18:04;100393.75;;;9.83;91.68
79752;BME280;69234;47.446;21.636;2023-06-14T02:18:37;100402.66;;;9.83;91.49
79752;BME280;69234;47.446;21.636;2023-06-14T02:19:08;100398.28;;;9.82;91.57
79752;BME280;69234;47.446;21.636;2023-06-14T02:19:40;100396.44;;;9.83;92.59
79752;BME280;69234;47.446;21.636;2023-06-14T02:20:12;100395.59;;;9.82;92.44
79752;BME280;69234;47.446;21.636;2023-06-14T02:20:43;100389.78;;;9.77;91.49
79752;BME280;69234;47.446;21.636;2023-06-14T02:21:14;100387.69;;;9.69;91.90
79752;BME280;69234;47.446;21.636;2023-06-14T02:21:45;100403.88;;;9.79;92.00
79752;BME280;69234;47.446;21.636;2023-06-14T02:22:17;100402.06;;;9.80;91.65
79752;BME280;69234;47.446;21.636;2023-06-14T02:22:48;100404.88;;;9.78;91.79
79752;BME280;69234;47.446;21.636;2023-06-14T02:23:19;100399.50;;;9.78;91.61
79752;BME280;69234;47.446;21.636;2023-06-14T02:23:50;100399.63;;;9.76;91.42
79752;BME280;69234;47.446;21.636;2023-06-14T02:24:21;100399.63;;;9.76;92.24
79752;BME280;69234;47.446;21.636;2023-06-14T02:24:52;100396.94;;;9.76;92.50
79752;BME280;69234;47.446;21.636;2023-06-14T02:25:23;100393.56;;;9.74;92.34
79752;BME280;69234;47.446;21.636;2023-06-14T02:25:54;100402.31;;;9.76;92.22
79752;BME280;69234;47.446;21.636;2023-06-14T02:26:24;100394.41;;;9.75;92.42
79752;BME280;69234;47.446;21.636;2023-06-14T02:26:59;100391.84;;;9.73;91.79
79752;BME280;69234;47.446;21.636;2023-06-14T02:27:30;100390.97;;;9.73;91.72
79752;BME280;69234;47.446;21.636;2023-06-14T02:28:01;100398.91;;;9.74;92.36
79752;BME280;69234;47.446;21.636;2023-06-14T02:28:32;100399.75;;;9.75;91.41
79752;BME280;69234;47.446;21.636;2023-06-14T02:29:06;100402.59;;;9.73;91.91
79752;BME280;69234;47.446;21.636;2023-06-14T02:29:40;100396.34;;;9.73;92.24
79752;BME280;69234;47.446;21.636;2023-06-14T02:30:12;100390.38;;;9.69;92.68
79752;BME280;69234;47.446;21.636;2023-06-14T02:30:43;100397.47;;;9.70;92.31
79752;BME280;69234;47.446;21.636;2023-06-14T02:31:14;100401.69;;;9.73;91.91
79752;BME280;69234;47.446;21.636;2023-06-14T02:31:45;100394.78;;;9.70;91.70
79752;BME280;69234;47.446;21.636;2023-06-14T02:32:19;100391.84;;;9.73;91.60
79752;BME280;69234;47.446;21.636;2023-06-14T02:32:50;100402.59;;;9.73;92.20
79752;BME280;69234;47.446;21.636;2023-06-14T02:33:21;100391.72;;;9.75;92.41
79752;BME280;69234;47.446;21.636;2023-06-14T02:33:52;100399.91;;;9.73;92.69
79752;BME280;69234;47.446;21.636;2023-06-14T02:34:24;100396.63;;;9.70;91.72
79752;BME280;69234;47.446;21.636;2023-06-14T02:34:55;100401.97;;;9.70;92.92
79752;BME280;69234;47.446;21.636;2023-06-14T02:35:27;100391.84;;;9.62;92.73
79752;BME280;69234;47.446;21.636;2023-06-14T02:36:01;100399.44;;;9.57;92.65
79752;BME280;69234;47.446;21.636;2023-06-14T02:36:33;100393.81;;;9.60;92.68
79752;BME280;69234;47.446;21.636;2023-06-14T02:37:05;100405.00;;;9.65;92.65
79752;BME280;69234;47.446;21.636;2023-06-14T02:37:36;100392.84;;;9.61;92.73
79752;BME280;69234;47.446;21.636;2023-06-14T02:38:07;100400.75;;;9.63;92.97
79752;BME280;69234;47.446;21.636;2023-06-14T02:38:38;100401.63;;;9.63;92.12
79752;BME280;69234;47.446;21.636;2023-06-14T02:39:09;100408.53;;;9.66;93.08
79752;BME280;69234;47.446;21.636;2023-06-14T02:39:41;100394.28;;;9.65;92.05
79752;BME280;69234;47.446;21.636;2023-06-14T02:40:12;100400.50;;;9.66;92.69
79752;BME280;69234;47.446;21.636;2023-06-14T02:40:43;100397.94;;;9.64;92.18
79752;BME280;69234;47.446;21.636;2023-06-14T02:41:14;100405.50;;;9.70;91.88
79752;BME280;69234;47.446;21.636;2023-06-14T02:41:45;100400.25;;;9.69;92.69
79752;BME280;69234;47.446;21.636;2023-06-14T02:42:16;100389.16;;;9.62;91.91
79752;BME280;69234;47.446;21.636;2023-06-14T02:42:46;100395.38;;;9.63;92.20
79752;BME280;69234;47.446;21.636;2023-06-14T02:43:17;100395.53;;;9.61;92.26
79752;BME280;69234;47.446;21.636;2023-06-14T02:43:48;100394.03;;;9.68;92.22
79752;BME280;69234;47.446;21.636;2023-06-14T02:44:23;100399.31;;;9.70;92.28
79752;BME280;69234;47.446;21.636;2023-06-14T02:44:56;100403.69;;;9.71;92.48
79752;BME280;69234;47.446;21.636;2023-06-14T02:45:27;100398.41;;;9.69;92.49
79752;BME280;69234;47.446;21.636;2023-06-14T02:45:58;100394.19;;;9.67;93.37
79752;BME280;69234;47.446;21.636;2023-06-14T02:46:29;100399.16;;;9.71;93.25
79752;BME280;69234;47.446;21.636;2023-06-14T02:47:00;100387.47;;;9.61;92.77
79752;BME280;69234;47.446;21.636;2023-06-14T02:47:31;100395.72;;;9.69;93.20
79752;BME280;69234;47.446;21.636;2023-06-14T02:48:02;100400.84;;;9.72;93.43
79752;BME280;69234;47.446;21.636;2023-06-14T02:48:33;100397.22;;;9.73;93.02
79752;BME280;69234;47.446;21.636;2023-06-14T02:49:04;100404.28;;;9.74;92.52
79752;BME280;69234;47.446;21.636;2023-06-14T02:49:36;100398.78;;;9.76;93.06
79752;BME280;69234;47.446;21.636;2023-06-14T02:50:07;100399.03;;;9.73;93.20
79752;BME280;69234;47.446;21.636;2023-06-14T02:50:38;100398.06;;;9.74;93.15
79752;BME280;69234;47.446;21.636;2023-06-14T02:51:10;100407.66;;;9.76;92.66